sensor_id;sensor_type;location;lat;lon;timestamp;P1;P4;P2;P0;N10;N4;N25;N1;N05;TS
43196;SPS30;28816;49.852;18.282;2024-01-16T00:00:36;9.190000;;9.220000;8.580000;;;;;;
43196;SPS30;28816;49.852;18.282;2024-01-16T00:05:38;8.670000;;8.620000;7.950000;;;;;;
43196;SPS30;28816;49.852;18.282;2024-01-16T00:10:40;8.700000;;8.710000;8.160000;;;;;;
43196;SPS30;28816;49.852;18.282;2024-01-16T00:15:42;8.730000;;8.720000;8.120000;;;;;;
43196;SPS30;28816;49.852;18.282;2024-01-16T00:20:44;8.920000;;8.910000;8.430000;;;;;;
43196;SPS30;28816;49.852;18.282;2024-01-16T00:25:46;9.160000;;9.100000;8.630000;;;;;;
43196;SPS30;28816;49.852;18.282;2024-01-16T00:30:48;9.320000;;9.250000;8.740000;;;;;;
43196;SPS30;28816;49.852;18.282;2024-01-16T00:35:50;8.510000;;8.520000;7.760000;;;;;;
43196;SPS30;28816;49.852;18.282;2024-01-16T00:40:52;9.420000;;9.380000;8.890000;;;;;;
43196;SPS30;28816;49.852;18.282;2024-01-16T00:45:54;9.940000;;9.760000;9.240000;;;;;;
43196;SPS30;28816;49.852;18.282;2024-01-16T00:50:56;10.390000;;10.470000;9.660000;;;;;;
43196;SPS30;28816;49.852;18.282;2024-01-16T00:55:58;9.660000;;9.680000;9.100000;;;;;;
43196;SPS30;28816;49.852;18.282;2024-01-16T01:01:00;8.830000;;8.880000;8.300000;;;;;;
43196;SPS30;28816;49.852;18.282;2024-01-16T01:06:02;9.340000;;9.250000;8.870000;;;;;;
43196;SPS30;28816;49.852;18.282;2024-01-16T01:11:05;8.080000;;8.040000;7.510000;;;;;;
43196;SPS30;28816;49.852;18.282;2024-01-16T01:16:08;8.820000;;8.810000;8.280000;;;;;;
43196;SPS30;28816;49.852;18.282;2024-01-16T01:21:10;9.870000;;9.900000;9.070000;;;;;;
43196;SPS30;28816;49.852;18.282;2024-01-16T01:26:12;8.890000;;8.850000;8.410000;;;;;;
43196;SPS30;28816;49.852;18.282;2024-01-16T01:31:14;8.830000;;8.750000;8.310000;;;;;;
43196;SPS30;28816;49.852;18.282;2024-01-16T01:36:16;7.890000;;7.870000;7.370000;;;;;;
43196;SPS30;28816;49.852;18.282;2024-01-16T01:41:18;8.990000;;8.850000;8.350000;;;;;;
43196;SPS30;28816;49.852;18.282;2024-01-16T01:46:21;9.290000;;9.260000;8.740000;;;;;;
43196;SPS30;28816;49.852;18.282;2024-01-16T01:51:23;9.240000;;9.210000;8.730000;;;;;;
43196;SPS30;28816;49.852;18.282;2024-01-16T01:56:26;8.780000;;8.720000;8.320000;;;;;;
43196;SPS30;28816;49.852;18.282;2024-01-16T02:01:29;8.650000;;8.680000;8.170000;;;;;;
43196;SPS30;28816;49.852;18.282;2024-01-16T02:06:31;7.710000;;7.690000;7.230000;;;;;;
43196;SPS30;28816;49.852;18.282;2024-01-16T02:11:33;7.830000;;7.730000;7.280000;;;;;;
43196;SPS30;28816;49.852;18.282;2024-01-16T02:16:35;8.390000;;8.130000;7.710000;;;;;;
43196;SPS30;28816;49.852;18.282;2024-01-16T02:21:38;7.130000;;7.170000;6.700000;;;;;;
43196;SPS30;28816;49.852;18.282;2024-01-16T02:26:41;8.220000;;8.310000;7.730000;;;;;;
43196;SPS30;28816;49.852;18.282;2024-01-16T02:31:43;7.610000;;7.560000;7.250000;;;;;;
43196;SPS30;28816;49.852;18.282;2024-01-16T02:36:45;7.790000;;7.690000;7.240000;;;;;;
43196;SPS30;28816;49.852;18.282;2024-01-16T02:41:48;8.220000;;8.230000;7.760000;;;;;;
43196;SPS30;28816;49.852;18.282;2024-01-16T02:46:50;8.710000;;8.700000;8.250000;;;;;;
43196;SPS30;28816;49.852;18.282;2024-01-16T02:51:52;9.290000;;9.250000;8.670000;;;;;;
43196;SPS30;28816;49.852;18.282;2024-01-16T02:56:54;8.250000;;8.170000;7.660000;;;;;;
43196;SPS30;28816;49.852;18.282;2024-01-16T03:01:56;8.680000;;8.650000;8.240000;;;;;;
43196;SPS30;28816;49.852;18.282;2024-01-16T03:06:58;9.130000;;9.120000;8.470000;;;;;;
43196;SPS30;28816;49.852;18.282;2024-01-16T03:12:00;8.820000;;8.820000;8.290000;;;;;;
43196;SPS30;28816;49.852;18.282;2024-01-16T03:17:02;9.460000;;9.430000;8.890000;;;;;;
43196;SPS30;28816;49.852;18.282;2024-01-16T03:22:04;8.370000;;8.380000;7.880000;;;;;;
43196;SPS30;28816;49.852;18.282;2024-01-16T03:27:06;8.410000;;8.500000;7.910000;;;;;;
43196;SPS30;28816;49.852;18.282;2024-01-16T03:32:09;7.790000;;7.760000;7.350000;;;;;;
43196;SPS30;28816;49.852;18.282;2024-01-16T03:37:11;7.010000;;7.000000;6.640000;;;;;;
43196;SPS30;28816;49.852;18.282;2024-01-16T03:42:13;7.710000;;7.610000;6.980000;;;;;;
43196;SPS30;28816;49.852;18.282;2024-01-16T03:47:15;7.780000;;7.830000;7.300000;;;;;;
43196;SPS30;28816;49.852;18.282;2024-01-16T03:52:17;8.160000;;8.060000;7.650000;;;;;;
43196;SPS30;28816;49.852;18.282;2024-01-16T03:57:20;7.470000;;7.420000;6.960000;;;;;;
43196;SPS30;28816;49.852;18.282;2024-01-16T04:02:22;7.060000;;7.060000;6.610000;;;;;;
43196;SPS30;28816;49.852;18.282;2024-01-16T04:07:24;6.780000;;6.740000;6.410000;;;;;;
43196;SPS30;28816;49.852;18.282;2024-01-16T04:12:26;7.910000;;7.890000;7.510000;;;;;;
43196;SPS30;28816;49.852;18.282;2024-01-16T04:17:29;7.270000;;7.240000;6.830000;;;;;;
43196;SPS30;28816;49.852;18.282;2024-01-16T04:22:30;7.060000;;7.010000;6.710000;;;;;;
43196;SPS30;28816;49.852;18.282;2024-01-16T04:27:33;5.870000;;5.830000;5.570000;;;;;;
43196;SPS30;28816;49.852;18.282;2024-01-16T04:32:35;7.540000;;7.420000;6.960000;;;;;;
43196;SPS30;28816;49.852;18.282;2024-01-16T04:37:37;4.790000;;4.740000;4.480000;;;;;;
43196;SPS30;28816;49.852;18.282;2024-01-16T04:42:39;5.520000;;5.440000;5.240000;;;;;;
43196;SPS30;28816;49.852;18.282;2024-01-16T04:47:41;6.520000;;6.600000;5.920000;;;;;;
43196;SPS30;28816;49.852;18.282;2024-01-16T04:52:44;7.430000;;7.310000;7.040000;;;;;;
43196;SPS30;28816;49.852;18.282;2024-01-16T04:57:46;5.940000;;5.840000;5.490000;;;;;;
43196;SPS30;28816;49.852;18.282;2024-01-16T05:02:48;5.550000;;5.550000;5.220000;;;;;;
43196;SPS30;28816;49.852;18.282;2024-01-16T05:07:50;4.990000;;4.920000;4.710000;;;;;;
43196;SPS30;28816;49.852;18.282;2024-01-16T05:12:52;4.910000;;4.900000;4.610000;;;;;;
43196;SPS30;28816;49.852;18.282;2024-01-16T05:17:54;4.410000;;4.360000;4.190000;;;;;;
43196;SPS30;28816;49.852;18.282;2024-01-16T05:22:56;5.410000;;5.400000;5.060000;;;;;;
43196;SPS30;28816;49.852;18.282;2024-01-16T05:27:58;4.290000;;4.300000;4.040000;;;;;;
43196;SPS30;28816;49.852;18.282;2024-01-16T05:33:00;5.150000;;5.150000;4.740000;;;;;;
43196;SPS30;28816;49.852;18.282;2024-01-16T05:38:03;4.370000;;4.350000;4.100000;;;;;;
43196;SPS30;28816;49.852;18.282;2024-01-16T05:43:05;5.880000;;5.790000;5.400000;;;;;;
43196;SPS30;28816;49.852;18.282;2024-01-16T05:48:07;6.080000;;6.030000;5.680000;;;;;;
43196;SPS30;28816;49.852;18.282;2024-01-16T05:53:09;4.950000;;4.920000;4.660000;;;;;;
43196;SPS30;28816;49.852;18.282;2024-01-16T05:58:11;4.510000;;4.540000;4.140000;;;;;;
43196;SPS30;28816;49.852;18.282;2024-01-16T06:03:14;4.300000;;4.340000;4.050000;;;;;;
43196;SPS30;28816;49.852;18.282;2024-01-16T06:08:16;5.190000;;5.150000;4.960000;;;;;;
43196;SPS30;28816;49.852;18.282;2024-01-16T06:13:18;4.770000;;4.690000;4.410000;;;;;;
43196;SPS30;28816;49.852;18.282;2024-01-16T06:18:20;4.430000;;4.400000;4.140000;;;;;;
43196;SPS30;28816;49.852;18.282;2024-01-16T06:23:23;4.780000;;4.780000;4.490000;;;;;;
43196;SPS30;28816;49.852;18.282;2024-01-16T06:28:25;4.740000;;4.710000;4.430000;;;;;;
43196;SPS30;28816;49.852;18.282;2024-01-16T06:33:27;4.890000;;4.880000;4.470000;;;;;;
43196;SPS30;28816;49.852;18.282;2024-01-16T06:38:29;4.830000;;4.760000;4.560000;;;;;;
43196;SPS30;28816;49.852;18.282;2024-01-16T06:43:31;5.190000;;5.150000;4.820000;;;;;;
43196;SPS30;28816;49.852;18.282;2024-01-16T06:48:33;6.090000;;6.030000;5.680000;;;;;;
43196;SPS30;28816;49.852;18.282;2024-01-16T06:53:36;5.420000;;5.410000;5.090000;;;;;;
43196;SPS30;28816;49.852;18.282;2024-01-16T06:58:38;5.350000;;5.340000;4.960000;;;;;;
43196;SPS30;28816;49.852;18.282;2024-01-16T07:03:40;6.050000;;5.970000;5.610000;;;;;;
43196;SPS30;28816;49.852;18.282;2024-01-16T07:08:42;5.570000;;5.460000;5.120000;;;;;;
43196;SPS30;28816;49.852;18.282;2024-01-16T07:13:44;5.610000;;5.590000;5.280000;;;;;;
43196;SPS30;28816;49.852;18.282;2024-01-16T07:18:47;6.490000;;6.520000;6.070000;;;;;;
43196;SPS30;28816;49.852;18.282;2024-01-16T07:23:49;7.550000;;7.520000;7.100000;;;;;;
43196;SPS30;28816;49.852;18.282;2024-01-16T07:28:51;7.870000;;7.740000;7.340000;;;;;;
43196;SPS30;28816;49.852;18.282;2024-01-16T07:33:52;5.610000;;5.550000;5.220000;;;;;;
43196;SPS30;28816;49.852;18.282;2024-01-16T07:38:55;6.700000;;6.630000;6.290000;;;;;;
43196;SPS30;28816;49.852;18.282;2024-01-16T07:43:57;6.300000;;6.340000;5.920000;;;;;;
43196;SPS30;28816;49.852;18.282;2024-01-16T07:48:59;5.790000;;5.670000;5.470000;;;;;;
43196;SPS30;28816;49.852;18.282;2024-01-16T07:54:01;5.850000;;5.780000;5.460000;;;;;;
43196;SPS30;28816;49.852;18.282;2024-01-16T07:59:05;5.660000;;5.620000;5.390000;;;;;;
43196;SPS30;28816;49.852;18.282;2024-01-16T08:04:08;5.120000;;5.150000;4.820000;;;;;;
43196;SPS30;28816;49.852;18.282;2024-01-16T08:09:10;5.300000;;5.230000;5.050000;;;;;;
43196;SPS30;28816;49.852;18.282;2024-01-16T08:14:12;5.020000;;5.000000;4.750000;;;;;;
43196;SPS30;28816;49.852;18.282;2024-01-16T08:19:14;4.970000;;4.970000;4.700000;;;;;;
43196;SPS30;28816;49.852;18.282;2024-01-16T08:24:16;3.820000;;3.750000;3.630000;;;;;;
43196;SPS30;28816;49.852;18.282;2024-01-16T08:29:18;4.340000;;4.280000;4.160000;;;;;;
43196;SPS30;28816;49.852;18.282;2024-01-16T08:34:20;4.280000;;4.250000;3.990000;;;;;;
43196;SPS30;28816;49.852;18.282;2024-01-16T08:39:22;3.960000;;3.950000;3.700000;;;;;;
43196;SPS30;28816;49.852;18.282;2024-01-16T08:44:24;4.340000;;4.360000;4.100000;;;;;;
43196;SPS30;28816;49.852;18.282;2024-01-16T08:49:27;4.410000;;4.370000;4.200000;;;;;;
43196;SPS30;28816;49.852;18.282;2024-01-16T08:54:28;4.070000;;4.100000;3.820000;;;;;;
43196;SPS30;28816;49.852;18.282;2024-01-16T08:59:30;4.470000;;4.450000;4.190000;;;;;;
43196;SPS30;28816;49.852;18.282;2024-01-16T09:04:32;4.510000;;4.540000;4.200000;;;;;;
43196;SPS30;28816;49.852;18.282;2024-01-16T09:09:34;4.170000;;4.220000;3.900000;;;;;;
43196;SPS30;28816;49.852;18.282;2024-01-16T09:14:36;5.010000;;5.000000;4.720000;;;;;;
43196;SPS30;28816;49.852;18.282;2024-01-16T09:19:38;4.170000;;4.190000;3.920000;;;;;;
43196;SPS30;28816;49.852;18.282;2024-01-16T09:24:40;4.540000;;4.630000;4.230000;;;;;;
43196;SPS30;28816;49.852;18.282;2024-01-16T09:29:43;4.600000;;4.620000;4.350000;;;;;;
43196;SPS30;28816;49.852;18.282;2024-01-16T09:34:45;5.530000;;5.560000;5.140000;;;;;;
43196;SPS30;28816;49.852;18.282;2024-01-16T09:39:47;5.200000;;5.190000;4.940000;;;;;;
43196;SPS30;28816;49.852;18.282;2024-01-16T09:44:49;5.120000;;5.070000;4.770000;;;;;;
43196;SPS30;28816;49.852;18.282;2024-01-16T09:49:51;3.860000;;3.870000;3.600000;;;;;;
43196;SPS30;28816;49.852;18.282;2024-01-16T09:54:56;4.930000;;4.910000;4.660000;;;;;;
43196;SPS30;28816;49.852;18.282;2024-01-16T09:59:58;5.100000;;5.080000;4.820000;;;;;;
43196;SPS30;28816;49.852;18.282;2024-01-16T10:05:01;4.210000;;4.140000;3.860000;;;;;;
43196;SPS30;28816;49.852;18.282;2024-01-16T10:10:04;4.290000;;4.220000;4.010000;;;;;;
43196;SPS30;28816;49.852;18.282;2024-01-16T10:15:06;4.080000;;4.050000;3.840000;;;;;;
43196;SPS30;28816;49.852;18.282;2024-01-16T10:20:09;4.840000;;4.830000;4.540000;;;;;;
43196;SPS30;28816;49.852;18.282;2024-01-16T10:25:11;4.790000;;4.820000;4.520000;;;;;;
43196;SPS30;28816;49.852;18.282;2024-01-16T10:30:13;5.150000;;5.130000;4.860000;;;;;;
43196;SPS30;28816;49.852;18.282;2024-01-16T10:35:20;4.780000;;4.800000;4.490000;;;;;;
43196;SPS30;28816;49.852;18.282;2024-01-16T10:40:22;4.760000;;4.780000;4.450000;;;;;;
43196;SPS30;28816;49.852;18.282;2024-01-16T10:45:25;4.970000;;4.910000;4.700000;;;;;;
43196;SPS30;28816;49.852;18.282;2024-01-16T10:50:27;4.580000;;4.560000;4.320000;;;;;;
43196;SPS30;28816;49.852;18.282;2024-01-16T10:55:29;4.620000;;4.690000;4.330000;;;;;;
43196;SPS30;28816;49.852;18.282;2024-01-16T11:00:37;7.190000;;7.110000;6.760000;;;;;;
43196;SPS30;28816;49.852;18.282;2024-01-16T11:05:39;5.130000;;5.030000;4.750000;;;;;;
43196;SPS30;28816;49.852;18.282;2024-01-16T11:10:41;5.190000;;5.210000;4.890000;;;;;;
43196;SPS30;28816;49.852;18.282;2024-01-16T11:15:43;3.880000;;3.880000;3.650000;;;;;;
43196;SPS30;28816;49.852;18.282;2024-01-16T11:20:47;5.850000;;5.800000;5.550000;;;;;;
43196;SPS30;28816;49.852;18.282;2024-01-16T11:25:49;5.970000;;6.010000;5.640000;;;;;;
43196;SPS30;28816;49.852;18.282;2024-01-16T11:30:51;4.830000;;4.820000;4.580000;;;;;;
43196;SPS30;28816;49.852;18.282;2024-01-16T11:35:54;3.870000;;3.830000;3.710000;;;;;;
43196;SPS30;28816;49.852;18.282;2024-01-16T11:40:56;3.570000;;3.570000;3.350000;;;;;;
43196;SPS30;28816;49.852;18.282;2024-01-16T11:45:58;3.620000;;3.620000;3.450000;;;;;;
43196;SPS30;28816;49.852;18.282;2024-01-16T11:51:00;3.630000;;3.630000;3.400000;;;;;;
43196;SPS30;28816;49.852;18.282;2024-01-16T11:56:22;5.740000;;5.690000;5.400000;;;;;;
43196;SPS30;28816;49.852;18.282;2024-01-16T12:01:38;6.740000;;6.620000;6.020000;;;;;;
43196;SPS30;28816;49.852;18.282;2024-01-16T12:06:43;6.800000;;6.460000;5.750000;;;;;;
43196;SPS30;28816;49.852;18.282;2024-01-16T12:11:56;7.370000;;7.000000;6.490000;;;;;;
43196;SPS30;28816;49.852;18.282;2024-01-16T12:16:59;4.720000;;4.720000;4.220000;;;;;;
43196;SPS30;28816;49.852;18.282;2024-01-16T12:22:09;4.340000;;4.300000;4.070000;;;;;;
43196;SPS30;28816;49.852;18.282;2024-01-16T12:27:13;4.000000;;3.900000;3.820000;;;;;;
43196;SPS30;28816;49.852;18.282;2024-01-16T12:32:15;2.770000;;2.700000;2.680000;;;;;;
43196;SPS30;28816;49.852;18.282;2024-01-16T12:37:19;2.410000;;2.400000;2.280000;;;;;;
43196;SPS30;28816;49.852;18.282;2024-01-16T12:42:21;3.080000;;3.070000;2.860000;;;;;;
43196;SPS30;28816;49.852;18.282;2024-01-16T12:47:23;4.050000;;3.990000;3.900000;;;;;;
43196;SPS30;28816;49.852;18.282;2024-01-16T12:52:25;3.350000;;3.350000;3.180000;;;;;;
43196;SPS30;28816;49.852;18.282;2024-01-16T12:57:27;3.390000;;3.360000;3.240000;;;;;;
43196;SPS30;28816;49.852;18.282;2024-01-16T13:02:29;3.980000;;4.000000;3.730000;;;;;;
43196;SPS30;28816;49.852;18.282;2024-01-16T13:07:31;2.600000;;2.550000;2.470000;;;;;;
43196;SPS30;28816;49.852;18.282;2024-01-16T13:12:33;3.250000;;3.240000;3.070000;;;;;;
43196;SPS30;28816;49.852;18.282;2024-01-16T13:17:35;3.280000;;3.280000;3.100000;;;;;;
43196;SPS30;28816;49.852;18.282;2024-01-16T13:22:37;3.230000;;3.280000;2.990000;;;;;;
43196;SPS30;28816;49.852;18.282;2024-01-16T13:27:39;3.630000;;3.630000;3.410000;;;;;;
43196;SPS30;28816;49.852;18.282;2024-01-16T13:32:41;2.530000;;2.540000;2.400000;;;;;;
43196;SPS30;28816;49.852;18.282;2024-01-16T13:37:43;2.770000;;2.780000;2.580000;;;;;;
43196;SPS30;28816;49.852;18.282;2024-01-16T13:42:45;3.320000;;3.310000;3.080000;;;;;;
43196;SPS30;28816;49.852;18.282;2024-01-16T13:47:47;2.880000;;2.880000;2.710000;;;;;;
43196;SPS30;28816;49.852;18.282;2024-01-16T13:52:49;3.050000;;3.030000;2.920000;;;;;;
43196;SPS30;28816;49.852;18.282;2024-01-16T13:57:51;7.850000;;7.720000;7.310000;;;;;;
43196;SPS30;28816;49.852;18.282;2024-01-16T14:02:53;5.650000;;5.600000;5.330000;;;;;;
43196;SPS30;28816;49.852;18.282;2024-01-16T14:07:55;5.070000;;5.090000;4.690000;;;;;;
43196;SPS30;28816;49.852;18.282;2024-01-16T14:12:57;3.870000;;3.840000;3.630000;;;;;;
43196;SPS30;28816;49.852;18.282;2024-01-16T14:17:59;4.300000;;4.280000;3.990000;;;;;;
43196;SPS30;28816;49.852;18.282;2024-01-16T14:23:02;3.780000;;3.790000;3.560000;;;;;;
43196;SPS30;28816;49.852;18.282;2024-01-16T14:28:04;4.070000;;4.080000;3.840000;;;;;;
43196;SPS30;28816;49.852;18.282;2024-01-16T14:33:06;3.620000;;3.600000;3.440000;;;;;;
43196;SPS30;28816;49.852;18.282;2024-01-16T14:38:08;3.770000;;3.750000;3.550000;;;;;;
43196;SPS30;28816;49.852;18.282;2024-01-16T14:43:10;4.120000;;4.110000;3.810000;;;;;;
43196;SPS30;28816;49.852;18.282;2024-01-16T14:48:13;5.220000;;5.170000;4.860000;;;;;;
43196;SPS30;28816;49.852;18.282;2024-01-16T14:53:15;4.410000;;4.420000;4.110000;;;;;;
43196;SPS30;28816;49.852;18.282;2024-01-16T14:58:17;4.860000;;4.820000;4.570000;;;;;;
43196;SPS30;28816;49.852;18.282;2024-01-16T15:03:19;4.690000;;4.650000;4.450000;;;;;;
43196;SPS30;28816;49.852;18.282;2024-01-16T15:08:21;9.270000;;9.100000;8.340000;;;;;;
43196;SPS30;28816;49.852;18.282;2024-01-16T15:13:23;8.600000;;8.460000;7.960000;;;;;;
43196;SPS30;28816;49.852;18.282;2024-01-16T15:18:25;6.490000;;6.450000;5.990000;;;;;;
43196;SPS30;28816;49.852;18.282;2024-01-16T15:23:28;6.320000;;6.200000;5.770000;;;;;;
43196;SPS30;28816;49.852;18.282;2024-01-16T15:28:30;6.070000;;6.030000;5.520000;;;;;;
43196;SPS30;28816;49.852;18.282;2024-01-16T15:33:32;6.540000;;6.370000;5.840000;;;;;;
43196;SPS30;28816;49.852;18.282;2024-01-16T15:38:34;7.460000;;7.330000;6.740000;;;;;;
43196;SPS30;28816;49.852;18.282;2024-01-16T15:43:36;7.100000;;6.890000;6.240000;;;;;;
43196;SPS30;28816;49.852;18.282;2024-01-16T15:48:38;7.890000;;7.640000;7.200000;;;;;;
43196;SPS30;28816;49.852;18.282;2024-01-16T15:53:41;6.210000;;6.120000;5.600000;;;;;;
43196;SPS30;28816;49.852;18.282;2024-01-16T15:58:43;5.550000;;5.480000;5.050000;;;;;;
43196;SPS30;28816;49.852;18.282;2024-01-16T16:03:45;6.320000;;6.200000;5.810000;;;;;;
43196;SPS30;28816;49.852;18.282;2024-01-16T16:08:48;7.800000;;7.710000;7.010000;;;;;;
43196;SPS30;28816;49.852;18.282;2024-01-16T16:13:50;6.510000;;6.370000;6.020000;;;;;;
43196;SPS30;28816;49.852;18.282;2024-01-16T16:18:52;7.150000;;6.830000;6.350000;;;;;;
43196;SPS30;28816;49.852;18.282;2024-01-16T16:23:55;5.290000;;5.190000;4.840000;;;;;;
43196;SPS30;28816;49.852;18.282;2024-01-16T16:28:57;5.620000;;5.490000;5.120000;;;;;;
43196;SPS30;28816;49.852;18.282;2024-01-16T16:34:00;6.160000;;6.010000;5.690000;;;;;;
43196;SPS30;28816;49.852;18.282;2024-01-16T16:39:03;6.470000;;6.370000;5.970000;;;;;;
43196;SPS30;28816;49.852;18.282;2024-01-16T16:44:05;8.670000;;8.580000;7.900000;;;;;;
43196;SPS30;28816;49.852;18.282;2024-01-16T16:49:07;13.800000;;13.520000;12.270000;;;;;;
43196;SPS30;28816;49.852;18.282;2024-01-16T16:54:10;14.100000;;13.970000;12.900000;;;;;;
43196;SPS30;28816;49.852;18.282;2024-01-16T16:59:12;13.640000;;13.560000;12.580000;;;;;;
43196;SPS30;28816;49.852;18.282;2024-01-16T17:04:14;11.720000;;11.720000;10.840000;;;;;;
43196;SPS30;28816;49.852;18.282;2024-01-16T17:09:16;11.890000;;11.830000;10.970000;;;;;;
43196;SPS30;28816;49.852;18.282;2024-01-16T17:14:18;10.990000;;10.910000;10.060000;;;;;;
43196;SPS30;28816;49.852;18.282;2024-01-16T17:19:20;12.610000;;12.350000;11.570000;;;;;;
43196;SPS30;28816;49.852;18.282;2024-01-16T17:24:23;12.840000;;12.640000;11.600000;;;;;;
43196;SPS30;28816;49.852;18.282;2024-01-16T17:29:25;12.720000;;12.420000;11.670000;;;;;;
43196;SPS30;28816;49.852;18.282;2024-01-16T17:34:27;11.020000;;10.890000;10.220000;;;;;;
43196;SPS30;28816;49.852;18.282;2024-01-16T17:39:30;9.790000;;9.700000;9.110000;;;;;;
43196;SPS30;28816;49.852;18.282;2024-01-16T17:44:32;8.750000;;8.670000;8.100000;;;;;;
43196;SPS30;28816;49.852;18.282;2024-01-16T17:49:45;8.230000;;8.130000;7.720000;;;;;;
43196;SPS30;28816;49.852;18.282;2024-01-16T17:54:47;7.350000;;7.320000;6.850000;;;;;;
43196;SPS30;28816;49.852;18.282;2024-01-16T17:59:49;8.630000;;8.510000;7.990000;;;;;;
43196;SPS30;28816;49.852;18.282;2024-01-16T18:04:51;9.630000;;9.520000;8.930000;;;;;;
43196;SPS30;28816;49.852;18.282;2024-01-16T18:09:54;8.800000;;8.710000;8.140000;;;;;;
43196;SPS30;28816;49.852;18.282;2024-01-16T18:14:56;9.030000;;8.860000;8.320000;;;;;;
43196;SPS30;28816;49.852;18.282;2024-01-16T18:19:58;9.770000;;9.660000;9.010000;;;;;;
43196;SPS30;28816;49.852;18.282;2024-01-16T18:25:01;9.230000;;9.100000;8.520000;;;;;;
43196;SPS30;28816;49.852;18.282;2024-01-16T18:30:03;9.020000;;9.000000;8.470000;;;;;;
43196;SPS30;28816;49.852;18.282;2024-01-16T18:35:05;10.190000;;10.090000;9.380000;;;;;;
43196;SPS30;28816;49.852;18.282;2024-01-16T18:40:07;9.430000;;9.280000;8.840000;;;;;;
43196;SPS30;28816;49.852;18.282;2024-01-16T18:45:10;8.890000;;8.930000;8.200000;;;;;;
43196;SPS30;28816;49.852;18.282;2024-01-16T18:50:12;10.060000;;10.110000;9.340000;;;;;;
43196;SPS30;28816;49.852;18.282;2024-01-16T18:55:14;10.120000;;9.980000;9.420000;;;;;;
43196;SPS30;28816;49.852;18.282;2024-01-16T19:00:16;11.640000;;11.520000;10.670000;;;;;;
43196;SPS30;28816;49.852;18.282;2024-01-16T19:05:19;10.650000;;10.620000;9.800000;;;;;;
43196;SPS30;28816;49.852;18.282;2024-01-16T19:10:21;12.560000;;12.390000;11.500000;;;;;;
43196;SPS30;28816;49.852;18.282;2024-01-16T19:15:23;10.950000;;10.930000;10.300000;;;;;;
43196;SPS30;28816;49.852;18.282;2024-01-16T19:20:25;12.230000;;12.180000;11.500000;;;;;;
43196;SPS30;28816;49.852;18.282;2024-01-16T19:25:28;13.480000;;13.440000;12.330000;;;;;;
43196;SPS30;28816;49.852;18.282;2024-01-16T19:30:30;13.480000;;13.300000;12.410000;;;;;;
43196;SPS30;28816;49.852;18.282;2024-01-16T19:35:32;15.400000;;15.190000;14.280000;;;;;;
43196;SPS30;28816;49.852;18.282;2024-01-16T19:40:34;13.600000;;13.440000;12.540000;;;;;;
43196;SPS30;28816;49.852;18.282;2024-01-16T19:45:37;14.860000;;14.870000;13.730000;;;;;;
43196;SPS30;28816;49.852;18.282;2024-01-16T19:50:39;14.180000;;14.080000;13.210000;;;;;;
43196;SPS30;28816;49.852;18.282;2024-01-16T19:55:41;14.800000;;14.620000;13.760000;;;;;;
43196;SPS30;28816;49.852;18.282;2024-01-16T20:00:44;15.100000;;15.100000;13.910000;;;;;;
43196;SPS30;28816;49.852;18.282;2024-01-16T20:05:46;15.600000;;15.620000;14.480000;;;;;;
43196;SPS30;28816;49.852;18.282;2024-01-16T20:10:48;16.040000;;15.810000;14.850000;;;;;;
43196;SPS30;28816;49.852;18.282;2024-01-16T20:15:50;14.450000;;14.280000;13.610000;;;;;;
43196;SPS30;28816;49.852;18.282;2024-01-16T20:20:52;15.720000;;15.620000;14.560000;;;;;;
43196;SPS30;28816;49.852;18.282;2024-01-16T20:25:55;14.620000;;14.490000;13.540000;;;;;;
43196;SPS30;28816;49.852;18.282;2024-01-16T20:30:57;14.310000;;14.170000;13.190000;;;;;;
43196;SPS30;28816;49.852;18.282;2024-01-16T20:36:00;14.700000;;14.540000;13.610000;;;;;;
43196;SPS30;28816;49.852;18.282;2024-01-16T20:41:02;15.540000;;15.380000;14.440000;;;;;;
43196;SPS30;28816;49.852;18.282;2024-01-16T20:46:04;14.680000;;14.610000;13.890000;;;;;;
43196;SPS30;28816;49.852;18.282;2024-01-16T20:51:06;15.170000;;15.090000;13.960000;;;;;;
43196;SPS30;28816;49.852;18.282;2024-01-16T20:56:08;14.400000;;14.200000;13.310000;;;;;;
43196;SPS30;28816;49.852;18.282;2024-01-16T21:01:11;15.340000;;15.160000;14.240000;;;;;;
43196;SPS30;28816;49.852;18.282;2024-01-16T21:06:13;14.260000;;14.130000;13.480000;;;;;;
43196;SPS30;28816;49.852;18.282;2024-01-16T21:11:15;15.260000;;15.060000;14.350000;;;;;;
43196;SPS30;28816;49.852;18.282;2024-01-16T21:16:18;14.740000;;14.520000;13.660000;;;;;;
43196;SPS30;28816;49.852;18.282;2024-01-16T21:21:20;14.370000;;14.170000;13.200000;;;;;;
43196;SPS30;28816;49.852;18.282;2024-01-16T21:26:22;13.390000;;13.140000;12.220000;;;;;;
43196;SPS30;28816;49.852;18.282;2024-01-16T21:31:24;14.880000;;14.750000;13.870000;;;;;;
43196;SPS30;28816;49.852;18.282;2024-01-16T21:36:27;14.570000;;14.470000;13.600000;;;;;;
43196;SPS30;28816;49.852;18.282;2024-01-16T21:41:29;14.870000;;14.770000;13.970000;;;;;;
43196;SPS30;28816;49.852;18.282;2024-01-16T21:46:32;14.150000;;14.100000;13.280000;;;;;;
43196;SPS30;28816;49.852;18.282;2024-01-16T21:51:34;13.340000;;13.160000;12.330000;;;;;;
43196;SPS30;28816;49.852;18.282;2024-01-16T21:56:36;13.540000;;13.400000;12.700000;;;;;;
43196;SPS30;28816;49.852;18.282;2024-01-16T22:01:39;14.960000;;14.880000;13.980000;;;;;;
43196;SPS30;28816;49.852;18.282;2024-01-16T22:06:44;14.250000;;14.240000;13.250000;;;;;;
43196;SPS30;28816;49.852;18.282;2024-01-16T22:11:46;15.030000;;15.020000;14.080000;;;;;;
43196;SPS30;28816;49.852;18.282;2024-01-16T22:16:48;14.410000;;14.250000;13.290000;;;;;;
43196;SPS30;28816;49.852;18.282;2024-01-16T22:21:51;13.990000;;13.960000;12.960000;;;;;;
43196;SPS30;28816;49.852;18.282;2024-01-16T22:26:53;14.910000;;14.800000;13.940000;;;;;;
43196;SPS30;28816;49.852;18.282;2024-01-16T22:31:55;13.850000;;13.800000;12.960000;;;;;;
43196;SPS30;28816;49.852;18.282;2024-01-16T22:36:58;14.940000;;14.770000;13.920000;;;;;;
43196;SPS30;28816;49.852;18.282;2024-01-16T22:42:00;14.430000;;14.270000;13.510000;;;;;;
43196;SPS30;28816;49.852;18.282;2024-01-16T22:47:03;14.390000;;14.470000;13.450000;;;;;;
43196;SPS30;28816;49.852;18.282;2024-01-16T22:52:05;14.390000;;14.370000;13.300000;;;;;;
43196;SPS30;28816;49.852;18.282;2024-01-16T22:57:08;14.450000;;14.460000;13.630000;;;;;;
43196;SPS30;28816;49.852;18.282;2024-01-16T23:02:10;13.970000;;13.810000;13.100000;;;;;;